National Weather Service United States Department of Commerce

Airport Observations and Forecasts (from NWS CLE)

Cleveland Hopkins International Airport

 

FAA details


000
FTUS41 KCLE 301129
TAFCLE
TAF
KCLE 301129Z 3012/0118 00000KT P6SM SKC
FM301700 04009KT P6SM SCT040 SCT250
FM010200 05007KT P6SM BKN250=

24 hours of observations

7-day forecast

Hourly - Tabular forecast  Hourly - Graph forecast

Terminal Information Board

Toledo Express Airport

 

FAA details


000
FTUS41 KCLE 301129
TAFTOL
TAF
KTOL 301129Z 3012/0112 00000KT P6SM BKN028
FM301500 07010KT P6SM SCT040
FM010400 06007KT P6SM BKN250=

24 hours of observations

7-day forecast

Hourly - Tabular forecast  Hourly - Graph forecast

Terminal Information Board

Findlay Airport

 

FAA details


000
FTUS41 KCLE 301129
TAFFDY
TAF
KFDY 301129Z 3012/0112 11003KT P6SM SKC
FM301600 06009KT P6SM FEW040
FM010300 06007KT P6SM BKN250=

24 hours of observations

7-day forecast

Hourly - Tabular forecast   Hourly - Graph forecast

Terminal Information Board

Mansfield Lahm Airport

 

FAA details


000
FTUS41 KCLE 301129
TAFMFD
TAF
KMFD 301129Z 3012/0112 04003KT P6SM SKC
FM301600 06007KT P6SM FEW040 SCT250
FM302000 04010KT P6SM SCT040
FM010200 05007KT P6SM BKN250=

24 hours of observations

7-day forecast

Hourly - Tabular forecast   Hourly - Graph forecast

Terminal Information Board

Akron-Canton Airport

 

FAA details


000
FTUS41 KCLE 301129
TAFCAK
TAF
KCAK 301129Z 3012/0112 07008KT P6SM SKC
FM301700 05009KT P6SM SCT040 SCT250
FM010100 05007KT P6SM BKN250=

24 hours of observations

7-day forecast

Hourly - Tabular forecast   Hourly - Graph forecast

Terminal Information Board

Youngstown-Warren Regional Airport

 

FAA details


000
FTUS41 KCLE 301129
TAFYNG
TAF
KYNG 301129Z 3012/0112 08007KT P6SM SKC
FM301700 05009KT P6SM SCT040 SCT250
FM302300 05006KT P6SM BKN250=

24 hours of observations

7-day forecast

Hourly - Tabular forecast   Hourly - Graph forecast

Terminal Information Board

Erie International Airport

 

FAA details


000
FTUS41 KCLE 301129
TAFERI
TAF
KERI 301129Z 3012/0112 18003KT P6SM SKC
FM301700 06011KT P6SM SCT040 SCT250
FM302300 05010KT P6SM SCT250
FM010200 07009KT P6SM BKN250=

24 hours of observations

7-day forecast

Hourly - Tabular Forecast  Hourly - Graph forecast

Terminal Information Board

The National Weather Service is Cleveland is responsible for the Terminal Areodome Forecasts for seven area airports in northern Ohio and northwest Pennsylvania.  Routine issuance times are by 00Z, 06Z, 12Z, and 18Z with amendments, as needed.

Latest Surface Analysis

Additional Current Conditions

Satellite

Radar
 
 

 

Center Weather Service Unit, Oberlin/ZOB

CWA/MIS    

 

The National Weather Service Center Weather Service Unit in Oberlin is responsible for the airspace above northern Ohio and northwest Pennsylvania and ajoining areas.

 

Aviaiton Weather Center National, AWC

AIRMETS & SIGMETS